Time;durP1;ratioP1;P1;durP2;ratioP2;P2;SDS_P1;SDS_P2;PMS_P1;PMS_P2;Temp;Humidity;BMP_temperature;BMP_pressure;BME280_temperature;BME280_humidity;BME280_pressure;Samples;Min_cycle;Max_cycle;Signal;HPM_P1;HPM_P2
2022/01/05 04:01:43;;;;;;;10.20;1.73;;;3.90;99.90;;;;;;5423448;22;20047;-78
2022/01/05 04:04:08;;;;;;;15.00;2.53;;;4.00;99.90;;;;;;4973989;28;20051;-77
2022/01/05 04:06:34;;;;;;;14.68;2.78;;;4.00;99.90;;;;;;4957988;28;20035;-77
2022/01/05 04:08:59;;;;;;;10.77;2.55;;;4.10;99.90;;;;;;4974295;28;20088;-78
2022/01/05 04:11:25;;;;;;;13.25;2.03;;;4.10;99.90;;;;;;4973979;28;20039;-78
2022/01/05 04:13:50;;;;;;;16.23;2.30;;;4.00;99.90;;;;;;4975247;28;20094;-79
2022/01/05 04:16:16;;;;;;;10.27;1.90;;;4.00;99.90;;;;;;4974193;28;20042;-79
2022/01/05 04:18:42;;;;;;;11.07;2.40;;;3.90;99.90;;;;;;4973787;28;20121;-79
2022/01/05 04:21:07;;;;;;;12.05;1.50;;;3.90;99.90;;;;;;4974043;28;20047;-79
2022/01/05 04:23:33;;;;;;;10.77;1.60;;;3.90;99.90;;;;;;4957742;28;20483;-79
2022/01/05 04:25:58;;;;;;;13.95;1.77;;;3.90;99.90;;;;;;4957867;28;20039;-79
2022/01/05 04:28:24;;;;;;;16.10;2.50;;;3.90;99.90;;;;;;4973695;28;20491;-78
2022/01/05 04:30:49;;;;;;;15.75;2.47;;;3.90;99.90;;;;;;4973583;28;20113;-79
2022/01/05 04:33:15;;;;;;;10.52;1.75;;;3.90;99.90;;;;;;4973888;28;20059;-78
2022/01/05 04:35:40;;;;;;;13.65;2.00;;;3.90;99.90;;;;;;4972934;28;20047;-78
2022/01/05 04:38:06;;;;;;;16.27;2.00;;;3.90;99.90;;;;;;4973502;28;20046;-78
2022/01/05 04:40:32;;;;;;;21.48;3.53;;;3.90;99.90;;;;;;4973691;28;20089;-79
2022/01/05 04:42:58;;;;;;;10.40;1.65;;;3.90;99.90;;;;;;4957349;28;20034;-79
2022/01/05 04:45:23;;;;;;;11.65;2.45;;;3.90;99.90;;;;;;4974713;28;20074;-79
2022/01/05 04:47:49;;;;;;;13.40;1.70;;;3.90;99.90;;;;;;4973671;28;20089;-79
2022/01/05 04:50:15;;;;;;;11.73;2.42;;;3.90;99.90;;;;;;4974801;28;20042;-79
2022/01/05 04:52:41;;;;;;;19.33;2.22;;;3.90;99.90;;;;;;4973498;28;20057;-79
2022/01/05 04:55:08;;;;;;;25.10;3.17;;;3.80;99.90;;;;;;4973278;28;20125;-78
2022/01/05 04:57:34;;;;;;;12.57;2.13;;;3.80;99.90;;;;;;4957122;28;20043;-79
2022/01/05 05:00:00;;;;;;;26.02;4.03;;;3.90;99.90;;;;;;4973261;28;20066;-79
2022/01/05 05:02:25;;;;;;;16.80;2.92;;;3.80;99.90;;;;;;4973322;28;20540;-78
2022/01/05 05:04:51;;;;;;;11.63;2.33;;;3.80;99.90;;;;;;4973192;28;20039;-78
2022/01/05 05:07:18;;;;;;;15.95;3.20;;;3.90;99.90;;;;;;4974744;28;20047;-79
2022/01/05 05:09:43;;;;;;;10.75;1.45;;;4.00;99.90;;;;;;4973400;28;20046;-79
2022/01/05 05:12:09;;;;;;;17.77;2.63;;;4.00;99.90;;;;;;4973004;28;20471;-78
2022/01/05 05:14:35;;;;;;;13.98;2.00;;;4.10;99.90;;;;;;4973001;28;20043;-78
2022/01/05 05:17:01;;;;;;;13.43;1.90;;;4.10;99.90;;;;;;4956934;28;20061;-78
2022/01/05 05:19:26;;;;;;;15.57;2.30;;;4.10;99.90;;;;;;4973027;28;20042;-79
2022/01/05 05:21:53;;;;;;;15.23;2.05;;;4.10;99.90;;;;;;4972861;28;20039;-78
2022/01/05 05:24:18;;;;;;;17.23;2.25;;;4.10;99.90;;;;;;4973273;28;20034;-79
2022/01/05 05:26:44;;;;;;;15.93;2.28;;;4.10;99.90;;;;;;4972892;28;20557;-79
2022/01/05 05:29:10;;;;;;;14.45;2.50;;;4.20;99.90;;;;;;4972902;28;20478;-79
2022/01/05 05:31:36;;;;;;;14.57;2.72;;;4.20;99.90;;;;;;4972797;28;20042;-79
2022/01/05 05:34:01;;;;;;;19.77;2.78;;;4.20;99.90;;;;;;4956957;28;20102;-78
2022/01/05 05:36:27;;;;;;;12.57;2.42;;;4.30;99.90;;;;;;4972948;28;20070;-79
2022/01/05 05:38:52;;;;;;;14.95;2.75;;;4.40;99.90;;;;;;4972756;28;20435;-79
2022/01/05 05:41:18;;;;;;;10.10;1.50;;;4.50;99.90;;;;;;4973896;28;20046;-80
2022/01/05 05:43:44;;;;;;;16.35;2.55;;;4.50;99.90;;;;;;4972692;28;20042;-79
2022/01/05 05:46:10;;;;;;;25.73;3.40;;;4.50;99.90;;;;;;4974093;28;20046;-79
2022/01/05 05:48:36;;;;;;;13.48;2.17;;;4.50;99.90;;;;;;4976658;28;20062;-79
2022/01/05 05:51:01;;;;;;;13.57;2.30;;;4.60;99.90;;;;;;4976479;28;20035;-80
2022/01/05 05:53:27;;;;;;;15.88;2.70;;;4.50;99.90;;;;;;4976602;28;20072;-81
2022/01/05 05:55:53;;;;;;;13.93;3.38;;;4.30;99.90;;;;;;4976731;28;20097;-80
2022/01/05 05:58:18;;;;;;;22.83;3.10;;;4.30;99.90;;;;;;4976451;28;20035;-81
2022/01/05 06:00:44;;;;;;;14.20;2.38;;;4.20;99.90;;;;;;4976213;28;20054;-80
2022/01/05 06:03:09;;;;;;;14.20;2.35;;;4.20;99.90;;;;;;4976407;28;20089;-80
2022/01/05 06:05:35;;;;;;;17.67;2.97;;;4.20;99.90;;;;;;4976399;28;20081;-79
2022/01/05 06:08:01;;;;;;;24.60;3.83;;;4.20;99.90;;;;;;4976229;28;20126;-79
2022/01/05 06:10:26;;;;;;;15.70;2.55;;;4.10;99.90;;;;;;4976152;28;20097;-79
2022/01/05 06:12:52;;;;;;;20.65;3.63;;;4.20;99.90;;;;;;4976506;28;20039;-79
2022/01/05 06:15:21;;;;;;;12.35;2.55;;;4.20;99.90;;;;;;4976114;28;20125;-79
2022/01/05 06:17:46;;;;;;;13.00;2.10;;;4.20;99.90;;;;;;4976247;28;20473;-80
2022/01/05 06:20:12;;;;;;;17.15;2.90;;;4.20;99.90;;;;;;4976047;28;20130;-79
2022/01/05 06:22:42;;;;;;;18.38;2.42;;;4.20;99.90;;;;;;4975927;28;20035;-78
2022/01/05 06:25:09;;;;;;;16.95;2.50;;;4.20;99.90;;;;;;4976129;28;20130;-80
2022/01/05 06:27:35;;;;;;;18.27;4.45;;;4.20;99.90;;;;;;4959807;28;20051;-79
2022/01/05 06:30:06;;;;;;;19.35;2.63;;;4.20;99.90;;;;;;4975795;28;20097;-79
2022/01/05 06:32:33;;;;;;;12.45;1.48;;;4.20;99.90;;;;;;4975825;28;20046;-79
2022/01/05 06:34:59;;;;;;;21.90;3.08;;;4.30;99.90;;;;;;4975850;28;20073;-79
2022/01/05 06:37:25;;;;;;;16.77;2.90;;;4.30;99.90;;;;;;4975690;28;20064;-79
2022/01/05 06:39:51;;;;;;;13.88;2.05;;;4.30;99.90;;;;;;4959575;28;20554;-80
2022/01/05 06:42:16;;;;;;;11.20;1.70;;;4.20;99.90;;;;;;4975629;28;20034;-81
2022/01/05 06:44:42;;;;;;;16.48;1.63;;;4.20;99.90;;;;;;4975948;28;20034;-81
2022/01/05 06:47:08;;;;;;;12.45;2.00;;;4.00;99.90;;;;;;4959440;28;20054;-81
2022/01/05 06:49:33;;;;;;;8.65;1.73;;;4.00;99.90;;;;;;4975600;28;20074;-81
2022/01/05 06:51:59;;;;;;;14.63;1.92;;;3.90;99.90;;;;;;4975654;28;20035;-81
2022/01/05 06:54:24;;;;;;;15.18;2.50;;;3.90;99.90;;;;;;4975507;28;20035;-80
2022/01/05 06:56:50;;;;;;;17.60;2.22;;;3.80;99.90;;;;;;4975186;28;20041;-79
2022/01/05 06:59:16;;;;;;;17.52;3.05;;;3.80;99.90;;;;;;4974626;28;20039;-78
2022/01/05 07:01:41;;;;;;;19.20;2.42;;;3.90;99.90;;;;;;4975112;28;20051;-80
2022/01/05 07:04:07;;;;;;;18.55;2.53;;;3.90;99.90;;;;;;4959139;28;20072;-80
2022/01/05 07:06:32;;;;;;;10.52;2.10;;;3.90;99.90;;;;;;4975196;28;20049;-81
2022/01/05 07:08:58;;;;;;;17.45;3.28;;;3.90;99.90;;;;;;4975224;28;20057;-81
2022/01/05 07:11:24;;;;;;;17.70;2.78;;;4.00;99.90;;;;;;4975343;28;20038;-80
2022/01/05 07:13:49;;;;;;;15.57;3.05;;;4.00;99.90;;;;;;4959036;28;20039;-81
2022/01/05 07:16:15;;;;;;;14.30;2.00;;;4.00;99.90;;;;;;4975318;28;20055;-81
2022/01/05 07:18:41;;;;;;;13.27;2.00;;;4.00;99.90;;;;;;4976277;28;20566;-81
2022/01/05 07:21:07;;;;;;;18.23;2.40;;;4.20;99.90;;;;;;4975191;28;20402;-82
2022/01/05 07:23:32;;;;;;;26.63;3.45;;;4.20;99.90;;;;;;4974963;28;20042;-81
2022/01/05 07:25:58;;;;;;;18.60;2.50;;;4.30;99.90;;;;;;4975155;28;20055;-81
2022/01/05 07:28:24;;;;;;;20.02;2.95;;;4.30;99.90;;;;;;4974876;28;20081;-83
2022/01/05 07:30:49;;;;;;;17.38;2.28;;;4.40;99.90;;;;;;4974697;28;20046;-81
2022/01/05 07:33:15;;;;;;;21.75;2.33;;;4.50;99.90;;;;;;4974838;28;20049;-80
2022/01/05 07:35:41;;;;;;;20.88;3.33;;;4.60;99.90;;;;;;4976250;28;20054;-81
2022/01/05 07:38:06;;;;;;;20.33;3.15;;;4.70;99.90;;;;;;4974667;28;20047;-81
2022/01/05 07:40:32;;;;;;;20.65;2.63;;;4.80;99.90;;;;;;4974697;28;20057;-80
2022/01/05 07:42:58;;;;;;;25.10;2.90;;;4.80;99.90;;;;;;4976191;28;20035;-81
2022/01/05 07:45:23;;;;;;;17.65;3.17;;;4.90;99.90;;;;;;4974608;28;20107;-81
2022/01/05 07:47:49;;;;;;;23.10;3.40;;;5.00;99.90;;;;;;4974585;28;20046;-81
2022/01/05 07:50:15;;;;;;;17.30;2.88;;;5.00;99.90;;;;;;4958301;28;20130;-80
2022/01/05 07:52:42;;;;;;;20.65;3.00;;;5.00;99.90;;;;;;4974392;28;20078;-81
2022/01/05 07:55:08;;;;;;;25.13;3.67;;;5.00;99.90;;;;;;4957337;28;20048;-81
2022/01/05 07:57:34;;;;;;;18.40;2.90;;;5.10;99.90;;;;;;4974768;28;20043;-81
2022/01/05 08:00:00;;;;;;;15.70;2.92;;;5.10;99.90;;;;;;4972621;28;20046;-81
2022/01/05 08:02:26;;;;;;;14.48;2.42;;;5.10;99.90;;;;;;4974038;28;20384;-80
2022/01/05 08:04:52;;;;;;;12.75;1.77;;;5.10;99.90;;;;;;4972537;28;20049;-81
2022/01/05 08:07:17;;;;;;;17.90;2.78;;;5.10;99.90;;;;;;4972643;28;20406;-82
2022/01/05 08:09:43;;;;;;;14.32;2.95;;;4.90;99.90;;;;;;4972374;28;20051;-83
2022/01/05 08:12:09;;;;;;;12.40;2.42;;;4.90;99.90;;;;;;4972718;28;20039;-81
2022/01/05 08:14:34;;;;;;;22.48;3.28;;;4.80;99.90;;;;;;4972531;28;20368;-81
2022/01/05 08:17:00;;;;;;;14.45;2.83;;;4.90;99.90;;;;;;4972338;28;20104;-81
2022/01/05 08:19:26;;;;;;;19.35;2.92;;;4.90;99.90;;;;;;4972255;28;20757;-82
2022/01/05 08:21:51;;;;;;;17.98;2.88;;;4.90;99.90;;;;;;4972443;28;20050;-78
2022/01/05 08:24:17;;;;;;;25.73;3.97;;;5.20;99.90;;;;;;4972542;28;20046;-83
2022/01/05 08:26:42;;;;;;;22.35;3.60;;;5.20;99.90;;;;;;4972741;28;20046;-80
2022/01/05 08:29:08;;;;;;;18.27;2.47;;;5.20;99.90;;;;;;4972514;28;20043;-81
2022/01/05 08:31:33;;;;;;;20.73;2.97;;;5.20;99.90;;;;;;4973446;28;20042;-81
2022/01/05 08:33:59;;;;;;;13.70;2.20;;;5.20;99.90;;;;;;4972219;28;20058;-81
2022/01/05 08:36:25;;;;;;;12.60;2.20;;;5.20;99.90;;;;;;4972029;28;20058;-81
2022/01/05 08:38:51;;;;;;;19.00;2.00;;;5.20;99.90;;;;;;4971749;28;20089;-82
2022/01/05 08:41:17;;;;;;;11.95;1.23;;;5.20;99.90;;;;;;4972011;28;20047;-81
2022/01/05 08:43:43;;;;;;;14.48;2.03;;;5.10;99.90;;;;;;4971677;28;20113;-81
2022/01/05 08:46:08;;;;;;;13.77;1.35;;;5.00;99.90;;;;;;4971698;28;20372;-81
2022/01/05 08:48:34;;;;;;;17.25;2.08;;;5.00;99.90;;;;;;4971707;28;20047;-80
2022/01/05 08:50:59;;;;;;;9.38;1.15;;;5.00;99.90;;;;;;4955576;28;20204;-80
2022/01/05 08:53:25;;;;;;;18.08;2.55;;;5.00;99.90;;;;;;4972025;28;20455;-81
2022/01/05 08:55:51;;;;;;;14.27;2.10;;;5.00;99.90;;;;;;4972305;28;20043;-81
2022/01/05 08:58:20;;;;;;;20.58;2.17;;;5.00;99.90;;;;;;4972141;28;20046;-78
2022/01/05 09:00:46;;;;;;;22.65;3.20;;;5.00;99.90;;;;;;4971903;28;20126;-78
2022/01/05 09:03:15;;;;;;;16.35;3.25;;;5.10;99.90;;;;;;4973772;28;20150;-79
2022/01/05 09:05:41;;;;;;;19.30;3.22;;;5.10;99.90;;;;;;4972127;28;20031;-80
2022/01/05 09:08:07;;;;;;;19.88;3.05;;;5.20;99.90;;;;;;4972231;28;20090;-80
2022/01/05 09:10:34;;;;;;;18.48;2.40;;;5.30;99.90;;;;;;4955987;28;20035;-80
2022/01/05 09:13:00;;;;;;;16.90;2.38;;;5.40;99.90;;;;;;4956045;28;20054;-80
2022/01/05 09:15:27;;;;;;;19.63;3.35;;;5.40;99.90;;;;;;4972031;28;20051;-78
2022/01/05 09:17:53;;;;;;;15.30;2.35;;;5.40;99.90;;;;;;4972059;28;20138;-78
2022/01/05 09:20:19;;;;;;;17.00;3.13;;;5.40;99.90;;;;;;4955502;28;20043;-77
2022/01/05 09:22:45;;;;;;;20.13;2.83;;;5.50;99.90;;;;;;4974857;28;20045;-78
2022/01/05 09:25:12;;;;;;;15.90;3.17;;;5.50;99.90;;;;;;4974419;28;20113;-80
2022/01/05 09:27:38;;;;;;;19.70;3.20;;;5.60;99.90;;;;;;4972160;28;20539;-80
2022/01/05 09:30:07;;;;;;;24.40;4.53;;;5.60;99.90;;;;;;4972080;28;20089;-81
2022/01/05 09:32:33;;;;;;;22.25;3.13;;;5.60;99.90;;;;;;4971689;28;20047;-80
2022/01/05 09:34:58;;;;;;;25.60;4.22;;;5.60;99.90;;;;;;4971756;28;20078;-79
2022/01/05 09:37:31;;;;;;;24.00;4.07;;;5.70;99.90;;;;;;4971705;28;20473;-81
2022/01/05 09:42:42;;;;;;;21.50;3.85;;;5.70;99.90;;;;;;4972012;28;20166;-78
2022/01/05 09:45:18;;;;;;;34.95;4.00;;;5.70;99.90;;;;;;4971766;28;20070;-82
2022/01/05 09:47:55;;;;;;;25.13;3.97;;;5.80;99.90;;;;;;4971623;28;20050;-79
2022/01/05 09:50:23;;;;;;;24.23;3.15;;;5.80;99.90;;;;;;4971914;28;20047;-79
2022/01/05 09:52:49;;;;;;;19.55;2.90;;;5.80;99.90;;;;;;4971671;28;20034;-79
2022/01/05 09:55:16;;;;;;;16.92;3.08;;;5.80;99.90;;;;;;4971990;28;20428;-81
2022/01/05 09:57:45;;;;;;;18.13;3.00;;;5.80;99.90;;;;;;4955790;28;20046;-80
2022/01/05 10:00:13;;;;;;;25.38;3.42;;;5.80;99.90;;;;;;4971826;28;20082;-78
2022/01/05 10:02:41;;;;;;;18.48;3.22;;;5.80;99.90;;;;;;4971421;28;20035;-79
2022/01/05 10:05:11;;;;;;;16.83;2.85;;;5.80;99.90;;;;;;4971539;28;20043;-79
2022/01/05 10:07:38;;;;;;;20.17;3.15;;;5.80;99.90;;;;;;4971505;28;20050;-79
2022/01/05 10:10:05;;;;;;;19.58;3.03;;;5.80;99.90;;;;;;4971785;28;20337;-82
2022/01/05 10:12:31;;;;;;;24.95;4.82;;;5.80;99.90;;;;;;4971497;28;20058;-80
2022/01/05 10:14:56;;;;;;;22.25;3.65;;;5.80;99.90;;;;;;4971686;28;20054;-79
2022/01/05 10:17:28;;;;;;;19.23;3.35;;;5.80;99.90;;;;;;4971586;28;20082;-79
2022/01/05 10:20:05;;;;;;;16.27;2.85;;;5.90;99.90;;;;;;4971534;28;20082;-78
2022/01/05 10:22:35;;;;;;;14.63;2.38;;;5.90;99.90;;;;;;4971266;28;20050;-78
2022/01/05 10:25:06;;;;;;;17.40;2.83;;;5.90;99.90;;;;;;4971241;28;20554;-79
2022/01/05 10:27:32;;;;;;;18.13;3.15;;;6.00;99.90;;;;;;4971381;28;20491;-78
2022/01/05 10:30:09;;;;;;;21.70;3.40;;;6.00;99.90;;;;;;4971606;28;20078;-78
2022/01/05 10:32:35;;;;;;;23.30;3.58;;;6.00;99.90;;;;;;4971733;28;20142;-78
2022/01/05 10:35:07;;;;;;;22.05;3.38;;;6.00;99.90;;;;;;4974761;28;20039;-80
2022/01/05 10:37:33;;;;;;;22.30;3.45;;;6.00;99.90;;;;;;4974826;28;20391;-79
2022/01/05 10:40:04;;;;;;;21.45;3.20;;;6.00;99.90;;;;;;4958763;28;20413;-79
2022/01/05 10:42:34;;;;;;;14.80;2.20;;;5.90;99.90;;;;;;4974581;28;20039;-80
2022/01/05 10:45:02;;;;;;;22.13;4.05;;;5.90;99.90;;;;;;4974578;28;20043;-79
2022/01/05 10:47:29;;;;;;;22.38;3.22;;;5.90;99.90;;;;;;4974493;28;20506;-80
2022/01/05 10:49:55;;;;;;;22.95;3.63;;;5.90;99.90;;;;;;4974579;28;20103;-79
2022/01/05 10:52:28;;;;;;;26.30;3.83;;;6.00;99.90;;;;;;4975935;28;20078;-80
2022/01/05 10:54:56;;;;;;;28.92;3.88;;;6.10;99.90;;;;;;4974748;28;20093;-80
2022/01/05 10:57:22;;;;;;;26.85;4.50;;;6.20;99.90;;;;;;4974171;28;20042;-79
2022/01/05 10:59:53;;;;;;;29.80;4.03;;;6.40;99.90;;;;;;4975678;28;20134;-79
2022/01/05 11:02:32;;;;;;;20.45;3.80;;;6.50;99.90;;;;;;4958301;28;20423;-79
2022/01/05 11:05:08;;;;;;;17.45;2.80;;;6.60;99.90;;;;;;4958346;28;20039;-79
2022/01/05 11:07:37;;;;;;;24.25;3.10;;;6.70;99.90;;;;;;4974348;28;20400;-80
2022/01/05 11:10:10;;;;;;;18.23;2.15;;;6.80;99.90;;;;;;4974032;28;20047;-80
2022/01/05 11:12:45;;;;;;;16.25;2.72;;;6.90;99.90;;;;;;4973890;28;20055;-80
2022/01/05 11:15:30;;;;;;;13.18;1.60;;;6.90;99.90;;;;;;4974228;28;20419;-81
2022/01/05 11:18:11;;;;;;;14.23;1.80;;;7.20;99.90;;;;;;4973909;28;20035;-80
2022/01/05 11:20:51;;;;;;;13.70;1.92;;;7.20;99.90;;;;;;4973760;28;20051;-80
2022/01/05 11:23:21;;;;;;;15.70;2.40;;;7.20;99.90;;;;;;4973735;28;20039;-81
2022/01/05 11:25:48;;;;;;;15.18;2.72;;;7.20;99.90;;;;;;4957710;28;20174;-80
2022/01/05 11:28:16;;;;;;;21.35;2.30;;;7.20;99.90;;;;;;4973735;28;20050;-80
2022/01/05 11:30:43;;;;;;;16.50;2.50;;;7.30;99.90;;;;;;4973558;28;20042;-79
2022/01/05 11:33:09;;;;;;;11.80;2.15;;;7.40;99.90;;;;;;4957492;28;20070;-79
2022/01/05 11:35:35;;;;;;;23.92;3.13;;;7.50;99.90;;;;;;4973572;28;20085;-80
2022/01/05 11:38:03;;;;;;;13.70;2.83;;;7.40;99.90;;;;;;4973473;28;20039;-80
2022/01/05 11:40:29;;;;;;;17.83;2.75;;;7.30;99.90;;;;;;4973381;28;20487;-79
2022/01/05 11:43:02;;;;;;;16.77;2.72;;;7.20;99.90;;;;;;4957251;28;20086;-80
2022/01/05 11:45:34;;;;;;;21.00;3.60;;;7.10;99.90;;;;;;4973056;28;20125;-79
2022/01/05 11:48:31;;;;;;;22.73;2.92;;;7.00;99.90;;;;;;4973754;28;20069;-79
2022/01/05 11:50:59;;;;;;;22.50;3.47;;;7.00;99.90;;;;;;4974928;28;20043;-79
2022/01/05 11:54:11;;;;;;;18.70;2.85;;;7.10;99.90;;;;;;4973270;28;20503;-79
2022/01/05 11:56:41;;;;;;;20.35;3.35;;;7.30;99.90;;;;;;4967853;28;20503;-82
2022/01/05 11:59:33;;;;;;;13.57;2.20;;;7.40;99.90;;;;;;4973068;28;20407;-79
2022/01/05 12:02:04;;;;;;;15.95;2.47;;;7.50;99.90;;;;;;4972903;28;20053;-79
2022/01/05 12:04:31;;;;;;;12.63;2.30;;;7.40;99.90;;;;;;4973324;28;20399;-79
2022/01/05 12:07:00;;;;;;;15.65;3.45;;;7.40;99.90;;;;;;4973023;28;20058;-79
2022/01/05 12:09:28;;;;;;;14.07;2.35;;;7.30;99.90;;;;;;4973002;28;20053;-79
2022/01/05 12:11:55;;;;;;;17.63;2.63;;;7.20;99.90;;;;;;4972782;28;20121;-79
2022/01/05 12:14:21;;;;;;;9.15;1.92;;;7.20;99.90;;;;;;4973131;28;20061;-80
2022/01/05 12:16:55;;;;;;;9.52;1.52;;;7.30;99.90;;;;;;4972915;28;20051;-79
2022/01/05 12:19:25;;;;;;;12.30;2.55;;;7.40;99.90;;;;;;4972814;28;20483;-80
2022/01/05 12:21:56;;;;;;;14.85;2.30;;;7.40;99.90;;;;;;4973244;28;20095;-79
2022/01/05 12:24:42;;;;;;;10.10;1.50;;;7.50;99.90;;;;;;4973978;28;20492;-78
2022/01/05 12:27:17;;;;;;;;;;;7.60;99.90;;;;;;4973009;28;20043;-80
2022/01/05 12:29:43;;;;;;;11.20;1.88;;;7.60;99.90;;;;;;4972835;28;19918;-79
2022/01/05 12:32:09;;;;;;;13.30;1.83;;;7.60;99.90;;;;;;4972785;28;20502;-80
2022/01/05 12:34:54;;;;;;;9.98;1.75;;;7.70;99.90;;;;;;4972401;28;20043;-79
2022/01/05 12:37:44;;;;;;;14.25;1.92;;;7.80;99.90;;;;;;4972399;28;20125;-81
2022/01/05 12:40:31;;;;;;;10.00;1.80;;;7.70;99.90;;;;;;4972352;28;20130;-79
2022/01/05 12:43:06;;;;;;;8.05;1.35;;;7.40;99.90;;;;;;4972373;28;20043;-79
2022/01/05 12:45:56;;;;;;;11.23;1.73;;;7.10;99.90;;;;;;4956424;28;20161;-80
2022/01/05 12:48:33;;;;;;;4.95;1.00;;;6.90;99.90;;;;;;4972657;28;20053;-79
2022/01/05 12:51:11;;;;;;;10.55;1.95;;;6.80;99.90;;;;;;4972249;28;20051;-79
2022/01/05 12:54:01;;;;;;;10.82;1.00;;;6.70;99.90;;;;;;4956397;28;20047;-79
2022/01/05 12:56:32;;;;;;;4.40;0.90;;;6.90;99.90;;;;;;4962514;28;20511;-80
2022/01/05 12:58:59;;;;;;;4.15;1.10;;;7.00;99.90;;;;;;4972031;28;20041;-78
2022/01/05 13:01:28;;;;;;;9.15;1.20;;;7.00;99.90;;;;;;4971986;28;20050;-78
2022/01/05 13:03:57;;;;;;;11.57;2.15;;;7.10;99.90;;;;;;4971989;28;20090;-79
2022/01/05 13:06:25;;;;;;;13.13;2.60;;;7.20;99.90;;;;;;4972260;28;20082;-80
2022/01/05 13:09:00;;;;;;;12.43;1.95;;;7.30;99.90;;;;;;4972275;28;20415;-79
2022/01/05 13:11:44;;;;;;;17.75;1.95;;;7.40;99.90;;;;;;4971746;28;20169;-79
2022/01/05 13:14:20;;;;;;;15.57;2.40;;;7.50;99.90;;;;;;4971851;28;20046;-79
2022/01/05 13:16:48;;;;;;;15.40;2.05;;;7.60;99.90;;;;;;4971855;28;20053;-80
2022/01/05 13:19:55;;;;;;;23.90;2.75;;;7.60;99.90;;;;;;4955892;28;20043;-79
2022/01/05 13:22:26;;;;;;;18.58;2.92;;;7.80;99.90;;;;;;4970983;28;20065;-80
2022/01/05 13:25:06;;;;;;;13.93;2.53;;;8.00;99.90;;;;;;4971722;28;20043;-79
2022/01/05 13:27:45;;;;;;;12.65;2.15;;;8.10;99.90;;;;;;4971871;28;20047;-79
2022/01/05 13:30:18;;;;;;;14.93;3.47;;;8.10;99.90;;;;;;4971846;28;20082;-78
2022/01/05 13:32:45;;;;;;;20.73;2.85;;;8.00;99.90;;;;;;4972601;28;20093;-77
2022/01/05 13:35:19;;;;;;;17.20;3.10;;;8.20;99.90;;;;;;4974088;28;20050;-77
2022/01/05 13:37:54;;;;;;;22.02;3.45;;;8.00;99.90;;;;;;4972751;28;20049;-77
2022/01/05 13:40:24;;;;;;;16.05;2.67;;;7.80;99.90;;;;;;4972217;28;20129;-78
2022/01/05 13:42:57;;;;;;;18.05;2.83;;;7.80;99.90;;;;;;4972086;28;20125;-79
2022/01/05 13:45:25;;;;;;;22.38;3.45;;;7.80;99.90;;;;;;4955954;28;20047;-79
2022/01/05 13:47:57;;;;;;;12.73;3.10;;;7.80;99.90;;;;;;4971602;28;20047;-79
2022/01/05 13:50:25;;;;;;;13.35;2.17;;;7.60;99.90;;;;;;4971731;28;20062;-78
2022/01/05 13:52:56;;;;;;;9.32;2.00;;;7.40;99.90;;;;;;4971690;28;20090;-79
2022/01/05 13:55:29;;;;;;;12.63;2.20;;;7.10;99.90;;;;;;4971509;28;20140;-79
2022/01/05 13:58:14;;;;;;;8.18;1.50;;;7.00;99.90;;;;;;4955489;28;20047;-79
2022/01/05 14:00:41;;;;;;;10.35;1.70;;;6.80;99.90;;;;;;4955272;28;20178;-78
2022/01/05 14:03:07;;;;;;;15.35;1.92;;;6.80;99.90;;;;;;4955791;28;20793;-79
2022/01/05 14:05:33;;;;;;;12.10;2.08;;;6.70;99.90;;;;;;4971749;28;20126;-79
2022/01/05 14:08:09;;;;;;;10.95;2.00;;;6.80;99.90;;;;;;4974229;28;20406;-79
2022/01/05 14:10:37;;;;;;;14.65;2.38;;;6.90;99.90;;;;;;4959009;28;20499;-80
2022/01/05 14:13:10;;;;;;;10.95;2.22;;;7.00;99.90;;;;;;4975223;28;20046;-80
2022/01/05 14:15:36;;;;;;;13.15;2.60;;;6.90;99.90;;;;;;4974811;28;20051;-79
2022/01/05 14:18:07;;;;;;;16.88;2.42;;;6.80;99.90;;;;;;4975123;28;20395;-78
2022/01/05 14:20:41;;;;;;;12.48;1.80;;;6.70;99.90;;;;;;4974905;28;20054;-79
2022/01/05 14:23:10;;;;;;;12.20;1.77;;;6.70;99.90;;;;;;4975241;28;20487;-78
2022/01/05 14:25:42;;;;;;;17.85;2.05;;;6.60;99.90;;;;;;4975015;28;20039;-79
2022/01/05 14:28:31;;;;;;;17.30;1.95;;;6.60;99.90;;;;;;4974910;28;20487;-79
2022/01/05 14:30:58;;;;;;;13.68;2.42;;;6.50;99.90;;;;;;4974704;28;20058;-79
2022/01/05 14:33:27;;;;;;;12.63;2.10;;;6.50;99.90;;;;;;4974696;28;20133;-79
2022/01/05 14:35:53;;;;;;;15.13;2.97;;;6.40;99.90;;;;;;4974642;28;20107;-78
2022/01/05 14:38:19;;;;;;;11.82;1.98;;;6.30;99.90;;;;;;4974625;28;20039;-79
2022/01/05 14:40:45;;;;;;;10.07;1.88;;;6.30;99.90;;;;;;4974593;28;20047;-78
2022/01/05 14:43:16;;;;;;;16.15;2.30;;;6.30;99.90;;;;;;4974602;28;20059;-78
2022/01/05 14:45:43;;;;;;;16.67;2.42;;;6.20;99.90;;;;;;4974696;28;20082;-77
2022/01/05 14:48:10;;;;;;;14.02;1.75;;;6.20;99.90;;;;;;4974391;28;20161;-77
2022/01/05 14:50:38;;;;;;;18.85;3.85;;;6.20;99.90;;;;;;4974232;28;20050;-78
2022/01/05 14:53:04;;;;;;;10.18;2.33;;;6.20;99.90;;;;;;4974341;28;20046;-78
2022/01/05 14:55:30;;;;;;;23.67;2.83;;;6.20;99.90;;;;;;4974218;28;20085;-79
2022/01/05 14:57:56;;;;;;;16.52;2.95;;;6.20;99.90;;;;;;4975451;28;20042;-79
2022/01/05 15:00:23;;;;;;;21.48;2.95;;;6.20;99.90;;;;;;4974076;28;20129;-78
2022/01/05 15:02:49;;;;;;;16.33;2.25;;;6.20;99.90;;;;;;4973732;28;20447;-79
2022/01/05 15:05:14;;;;;;;16.73;2.13;;;6.30;99.90;;;;;;4973231;28;20081;-78
2022/01/05 15:07:40;;;;;;;19.60;3.13;;;6.30;99.90;;;;;;4973101;28;20058;-80
2022/01/05 15:10:06;;;;;;;17.67;3.70;;;6.20;99.90;;;;;;4973144;28;20077;-79
2022/01/05 15:12:32;;;;;;;16.85;2.55;;;6.10;99.90;;;;;;4973045;28;20046;-77
2022/01/05 15:14:58;;;;;;;12.63;2.22;;;6.10;99.90;;;;;;4973011;28;20406;-77
2022/01/05 15:17:23;;;;;;;11.00;1.75;;;6.00;99.90;;;;;;4973163;28;20047;-78
2022/01/05 15:19:49;;;;;;;14.35;2.78;;;5.90;99.90;;;;;;4972426;28;20046;-78
2022/01/05 15:22:15;;;;;;;14.57;2.45;;;5.90;99.90;;;;;;4972986;28;20034;-78
2022/01/05 15:24:41;;;;;;;15.52;2.22;;;5.80;99.90;;;;;;4957211;28;20042;-77
2022/01/05 15:27:07;;;;;;;20.08;3.13;;;5.80;99.90;;;;;;4974436;28;20046;-78
2022/01/05 15:29:35;;;;;;;16.92;2.08;;;5.70;99.90;;;;;;4973220;28;20156;-79
2022/01/05 15:32:00;;;;;;;14.63;1.88;;;5.70;99.90;;;;;;4972846;28;20128;-79
2022/01/05 15:34:26;;;;;;;18.50;2.90;;;5.70;99.90;;;;;;4972818;28;20058;-78
2022/01/05 15:36:52;;;;;;;13.90;2.78;;;5.70;99.90;;;;;;4972610;28;20053;-79
2022/01/05 15:39:17;;;;;;;15.40;2.72;;;5.70;99.90;;;;;;4973342;28;20043;-77
2022/01/05 15:41:46;;;;;;;15.80;3.05;;;5.80;99.90;;;;;;4973254;28;20118;-78
2022/01/05 15:44:12;;;;;;;20.42;2.72;;;5.80;99.90;;;;;;4974726;28;20434;-78
2022/01/05 15:46:38;;;;;;;21.27;3.33;;;5.80;99.90;;;;;;4973462;28;20038;-77
2022/01/05 15:49:04;;;;;;;21.15;3.40;;;5.90;99.90;;;;;;4973351;28;20046;-78
2022/01/05 15:51:29;;;;;;;14.90;2.45;;;5.90;99.90;;;;;;4973524;28;20399;-77
2022/01/05 15:53:55;;;;;;;13.20;2.65;;;5.90;99.90;;;;;;4974774;28;20078;-78
2022/01/05 16:01:30;;;;;;;16.85;3.33;;;5.90;99.90;;;;;;4972936;28;20051;-79
2022/01/05 16:04:01;;;;;;;14.93;2.10;;;5.80;99.90;;;;;;4972999;28;20454;-78
2022/01/05 16:06:27;;;;;;;15.35;2.33;;;5.80;99.90;;;;;;4956752;28;20192;-78
2022/01/05 16:08:53;;;;;;;17.17;3.25;;;5.80;99.90;;;;;;4974368;28;20042;-77
2022/01/05 16:11:20;;;;;;;21.70;3.13;;;5.80;99.90;;;;;;4956789;28;20045;-78
2022/01/05 16:13:46;;;;;;;16.10;3.13;;;5.80;99.90;;;;;;4973034;28;20482;-79
2022/01/05 16:16:12;;;;;;;20.95;3.72;;;5.80;99.90;;;;;;4972967;28;20050;-77
2022/01/05 16:18:38;;;;;;;14.35;2.65;;;5.70;99.90;;;;;;4972816;28;20511;-77
2022/01/05 16:21:09;;;;;;;24.17;3.40;;;5.70;99.90;;;;;;4972782;28;20035;-78
2022/01/05 16:23:38;;;;;;;16.98;3.90;;;5.60;99.90;;;;;;4972865;28;20042;-77
2022/01/05 16:26:03;;;;;;;18.30;3.40;;;5.60;99.90;;;;;;4972698;28;20050;-78
2022/01/05 16:28:29;;;;;;;21.02;3.33;;;5.50;99.90;;;;;;4972503;28;20410;-78
2022/01/05 16:30:55;;;;;;;22.50;3.20;;;5.50;99.90;;;;;;4972662;28;20051;-79
2022/01/05 16:33:21;;;;;;;30.27;4.07;;;5.40;99.90;;;;;;4972308;28;20057;-77
2022/01/05 16:35:47;;;;;;;28.20;4.13;;;5.40;99.90;;;;;;4956258;28;20045;-77
2022/01/05 16:38:13;;;;;;;22.05;4.40;;;5.30;99.90;;;;;;4972398;28;20130;-78
2022/01/05 16:40:40;;;;;;;23.80;4.45;;;5.30;99.90;;;;;;4972182;28;20061;-78
2022/01/05 16:43:06;;;;;;;30.05;4.55;;;5.30;99.90;;;;;;4972172;28;20074;-77
2022/01/05 16:45:32;;;;;;;39.72;5.50;;;5.30;99.90;;;;;;4972128;28;20034;-76
2022/01/05 16:47:59;;;;;;;29.23;5.35;;;5.30;99.90;;;;;;4973537;28;20043;-77
2022/01/05 16:50:26;;;;;;;32.03;6.05;;;5.30;99.90;;;;;;4973388;28;20043;-77
2022/01/05 16:52:52;;;;;;;33.90;5.25;;;5.40;99.90;;;;;;4972249;28;20555;-77
2022/01/05 16:55:20;;;;;;;30.42;6.00;;;5.40;99.90;;;;;;4972117;28;20129;-78
2022/01/05 17:00:38;;;;;;;17.73;3.83;;;5.60;99.90;;;;;;4972135;28;20073;-78
2022/01/05 17:03:05;;;;;;;28.42;4.75;;;5.60;99.90;;;;;;4972126;28;20396;-78
2022/01/05 17:05:35;;;;;;;31.15;5.10;;;5.60;99.90;;;;;;4971842;28;20041;-77